HTZA/ZNZ METAR and TAF weather

Enter ICAO airport designator
Station Type Date Time Source
HTZA METAR 2021/05/14 04:00 UTC NOAA

HTZA 140400Z 21010KT 9999 SCT016 26/23 Q1015 NOSIG


Station Type Date Time Source
HTZA Decoded METAR 2021/05/14 04:00 UTC NOAA

Zanzibar / Kisauni, Tanzania (HTZA) 06-13S 039-13E 15M
May 14, 2021 - 12:00 AM EDT / 2021.05.14 0400 UTC
Wind: from the SSW (210 degrees) at 12 MPH (10 KT):0
Visibility: greater than 7 mile(s):0
Sky conditions: partly cloudy
Temperature: 78 F (26 C)
Dew Point: 73 F (23 C)
Relative Humidity: 83%
Pressure (altimeter): 29.97 in. Hg (1015 hPa)
ob: HTZA 140400Z 21010KT 9999 SCT016 26/23 Q1015 NOSIG
cycle: 4

Station Type Date Time Source
HTZA TAF 2021/05/14 00:45 UTC NOAA

HTZA 132300Z 1400/1424 21010KT 9999 FEW014
BECMG 1410/1412 15010KT
BECMG 1420/1422 21010KT BKN014

Example: see airport list